sensor_id;sensor_type;location;lat;lon;timestamp;pressure;altitude;pressure_sealevel;temperature;humidity
36932;BME280;22847;42.654;23.370;2023-02-03T00:01:42;94876.09;;;5.07;60.25
36932;BME280;22847;42.654;23.370;2023-02-03T00:04:07;94835.19;;;4.88;60.22
36932;BME280;22847;42.654;23.370;2023-02-03T00:06:33;94899.25;;;4.96;60.84
36932;BME280;22847;42.654;23.370;2023-02-03T00:08:58;94891.28;;;5.12;60.75
36932;BME280;22847;42.654;23.370;2023-02-03T00:11:28;94829.81;;;4.91;60.95
36932;BME280;22847;42.654;23.370;2023-02-03T00:13:54;94706.00;;;4.16;61.14
36932;BME280;22847;42.654;23.370;2023-02-03T00:16:19;94926.09;;;5.19;61.64
36932;BME280;22847;42.654;23.370;2023-02-03T00:18:44;94838.72;;;4.75;62.34
36932;BME280;22847;42.654;23.370;2023-02-03T00:21:10;94860.84;;;4.54;63.28
36932;BME280;22847;42.654;23.370;2023-02-03T00:23:35;94872.00;;;4.67;63.70
36932;BME280;22847;42.654;23.370;2023-02-03T00:26:12;94930.78;;;4.88;63.58
36932;BME280;22847;42.654;23.370;2023-02-03T00:28:39;94655.47;;;3.25;63.90
36932;BME280;22847;42.654;23.370;2023-02-03T00:31:05;94892.22;;;4.73;64.39
36932;BME280;22847;42.654;23.370;2023-02-03T00:33:30;94876.41;;;4.77;64.31
36932;BME280;22847;42.654;23.370;2023-02-03T00:36:02;94678.69;;;3.63;64.17
36932;BME280;22847;42.654;23.370;2023-02-03T00:38:28;94868.91;;;4.62;64.36
36932;BME280;22847;42.654;23.370;2023-02-03T00:40:53;94894.19;;;4.94;64.62
36932;BME280;22847;42.654;23.370;2023-02-03T00:43:20;94941.41;;;5.22;64.47
36932;BME280;22847;42.654;23.370;2023-02-03T00:45:45;94888.28;;;4.92;64.57
36932;BME280;22847;42.654;23.370;2023-02-03T00:48:11;94520.78;;;2.72;64.43
36932;BME280;22847;42.654;23.370;2023-02-03T00:50:36;94938.78;;;5.34;64.38
36932;BME280;22847;42.654;23.370;2023-02-03T00:53:02;94953.16;;;5.38;64.47
36932;BME280;22847;42.654;23.370;2023-02-03T00:55:27;94937.66;;;5.26;64.53
36932;BME280;22847;42.654;23.370;2023-02-03T00:57:53;94925.72;;;5.49;63.89
36932;BME280;22847;42.654;23.370;2023-02-03T01:00:18;94957.72;;;5.35;64.07
36932;BME280;22847;42.654;23.370;2023-02-03T01:02:44;94934.22;;;5.38;64.40
36932;BME280;22847;42.654;23.370;2023-02-03T01:05:09;94938.38;;;5.28;64.44
36932;BME280;22847;42.654;23.370;2023-02-03T01:07:35;94967.41;;;5.31;64.49
36932;BME280;22847;42.654;23.370;2023-02-03T01:10:00;94668.38;;;3.75;64.22
36932;BME280;22847;42.654;23.370;2023-02-03T01:12:28;94980.25;;;5.33;64.86
36932;BME280;22847;42.654;23.370;2023-02-03T01:14:54;94964.75;;;5.33;65.17
36932;BME280;22847;42.654;23.370;2023-02-03T01:17:19;94938.41;;;5.15;66.31
36932;BME280;22847;42.654;23.370;2023-02-03T01:19:45;94841.44;;;4.48;66.65
36932;BME280;22847;42.654;23.370;2023-02-03T01:22:10;94690.84;;;3.60;66.38
36932;BME280;22847;42.654;23.370;2023-02-03T01:24:35;94908.88;;;4.81;66.60
36932;BME280;22847;42.654;23.370;2023-02-03T01:27:01;94938.09;;;5.07;66.07
36932;BME280;22847;42.654;23.370;2023-02-03T01:29:26;95005.50;;;5.04;65.95
36932;BME280;22847;42.654;23.370;2023-02-03T01:31:52;94753.38;;;4.02;65.81
36932;BME280;22847;42.654;23.370;2023-02-03T01:34:17;94925.19;;;4.57;66.13
36932;BME280;22847;42.654;23.370;2023-02-03T01:36:43;94903.69;;;4.56;65.73
36932;BME280;22847;42.654;23.370;2023-02-03T01:39:08;94931.88;;;4.46;66.55
36932;BME280;22847;42.654;23.370;2023-02-03T01:41:37;94910.13;;;4.63;65.09
36932;BME280;22847;42.654;23.370;2023-02-03T01:47:00;94951.75;;;4.59;65.42
36932;BME280;22847;42.654;23.370;2023-02-03T01:49:31;94941.50;;;4.57;64.98
36932;BME280;22847;42.654;23.370;2023-02-03T01:52:00;94883.13;;;4.29;64.69
36932;BME280;22847;42.654;23.370;2023-02-03T01:54:29;94845.63;;;3.98;65.10
36932;BME280;22847;42.654;23.370;2023-02-03T01:57:00;94872.91;;;4.28;64.74
36932;BME280;22847;42.654;23.370;2023-02-03T01:59:29;94778.09;;;3.54;64.74
36932;BME280;22847;42.654;23.370;2023-02-03T02:01:56;94952.97;;;4.40;65.21
36932;BME280;22847;42.654;23.370;2023-02-03T02:04:27;94991.97;;;4.36;65.78
36932;BME280;22847;42.654;23.370;2023-02-03T02:06:55;94815.91;;;3.41;66.20
36932;BME280;22847;42.654;23.370;2023-02-03T02:09:23;94876.41;;;3.75;66.16
36932;BME280;22847;42.654;23.370;2023-02-03T02:11:48;94952.88;;;4.15;66.25
36932;BME280;22847;42.654;23.370;2023-02-03T02:14:14;94714.00;;;2.56;66.38
36932;BME280;22847;42.654;23.370;2023-02-03T02:16:52;94968.88;;;4.08;66.61
36932;BME280;22847;42.654;23.370;2023-02-03T02:19:51;94962.22;;;4.30;65.64
36932;BME280;22847;42.654;23.370;2023-02-03T02:22:29;94914.84;;;3.65;66.41
36932;BME280;22847;42.654;23.370;2023-02-03T02:33:58;94956.84;;;4.33;64.58
36932;BME280;22847;42.654;23.370;2023-02-03T02:36:33;94980.28;;;4.18;65.41
36932;BME280;22847;42.654;23.370;2023-02-03T02:39:12;94979.66;;;4.14;65.76
36932;BME280;22847;42.654;23.370;2023-02-03T02:41:59;94984.25;;;4.09;66.12
36932;BME280;22847;42.654;23.370;2023-02-03T02:44:32;94990.28;;;4.22;65.56
36932;BME280;22847;42.654;23.370;2023-02-03T02:47:10;95006.25;;;4.15;65.60
36932;BME280;22847;42.654;23.370;2023-02-03T02:49:51;94976.16;;;4.01;65.67
36932;BME280;22847;42.654;23.370;2023-02-03T02:52:20;94972.84;;;4.26;64.89
36932;BME280;22847;42.654;23.370;2023-02-03T02:54:50;94977.22;;;4.38;64.52
36932;BME280;22847;42.654;23.370;2023-02-03T02:57:17;94999.44;;;4.14;64.89
36932;BME280;22847;42.654;23.370;2023-02-03T02:59:46;94876.09;;;3.40;65.10
36932;BME280;22847;42.654;23.370;2023-02-03T03:02:12;94962.47;;;4.00;65.04
36932;BME280;22847;42.654;23.370;2023-02-03T03:04:38;94720.78;;;2.43;64.87
36932;BME280;22847;42.654;23.370;2023-02-03T03:07:09;94929.94;;;3.71;65.14
36932;BME280;22847;42.654;23.370;2023-02-03T03:09:50;94745.69;;;2.57;64.45
36932;BME280;22847;42.654;23.370;2023-02-03T03:12:28;95027.72;;;3.88;64.54
36932;BME280;22847;42.654;23.370;2023-02-03T03:15:03;94864.31;;;2.95;64.45
36932;BME280;22847;42.654;23.370;2023-02-03T03:17:42;95003.59;;;3.75;64.39
36932;BME280;22847;42.654;23.370;2023-02-03T03:20:19;94902.03;;;3.51;63.55
36932;BME280;22847;42.654;23.370;2023-02-03T03:22:51;95001.00;;;3.89;63.93
36932;BME280;22847;42.654;23.370;2023-02-03T03:25:20;95026.63;;;3.78;64.33
36932;BME280;22847;42.654;23.370;2023-02-03T03:27:58;94982.06;;;3.76;63.58
36932;BME280;22847;42.654;23.370;2023-02-03T03:30:28;94930.91;;;3.56;63.15
36932;BME280;22847;42.654;23.370;2023-02-03T03:32:54;95000.63;;;3.95;62.98
36932;BME280;22847;42.654;23.370;2023-02-03T03:35:21;94991.19;;;4.09;61.99
36932;BME280;22847;42.654;23.370;2023-02-03T03:37:57;94986.09;;;3.80;61.84
36932;BME280;22847;42.654;23.370;2023-02-03T03:40:26;95016.78;;;4.12;61.68
36932;BME280;22847;42.654;23.370;2023-02-03T03:42:57;94928.66;;;3.37;62.28
36932;BME280;22847;42.654;23.370;2023-02-03T03:50:26;94984.19;;;3.70;62.20
36932;BME280;22847;42.654;23.370;2023-02-03T03:52:54;94829.06;;;2.54;62.72
36932;BME280;22847;42.654;23.370;2023-02-03T03:55:21;94739.75;;;2.14;62.35
36932;BME280;22847;42.654;23.370;2023-02-03T03:57:57;94614.66;;;1.29;62.16
36932;BME280;22847;42.654;23.370;2023-02-03T04:00:27;95019.09;;;3.61;63.03
36932;BME280;22847;42.654;23.370;2023-02-03T04:02:55;94831.28;;;2.60;62.11
36932;BME280;22847;42.654;23.370;2023-02-03T04:05:24;95012.91;;;3.78;62.33
36932;BME280;22847;42.654;23.370;2023-02-03T04:07:50;94787.34;;;2.35;61.06
36932;BME280;22847;42.654;23.370;2023-02-03T04:12:47;95085.56;;;3.84;63.26
36932;BME280;22847;42.654;23.370;2023-02-03T04:15:13;95048.78;;;4.09;62.34
36932;BME280;22847;42.654;23.370;2023-02-03T04:17:38;94829.88;;;2.83;61.65
36932;BME280;22847;42.654;23.370;2023-02-03T04:20:04;95040.06;;;4.37;61.31
36932;BME280;22847;42.654;23.370;2023-02-03T04:22:29;95062.72;;;4.46;60.83
36932;BME280;22847;42.654;23.370;2023-02-03T04:24:55;94982.50;;;4.10;60.42
36932;BME280;22847;42.654;23.370;2023-02-03T04:27:24;95069.72;;;4.58;60.58
36932;BME280;22847;42.654;23.370;2023-02-03T04:29:49;95076.84;;;4.67;60.45
36932;BME280;22847;42.654;23.370;2023-02-03T04:32:15;95080.97;;;4.70;60.67
36932;BME280;22847;42.654;23.370;2023-02-03T04:34:40;94868.13;;;3.16;60.84
36932;BME280;22847;42.654;23.370;2023-02-03T04:37:06;95077.53;;;4.57;60.80
36932;BME280;22847;42.654;23.370;2023-02-03T04:39:31;95074.41;;;4.25;61.77
36932;BME280;22847;42.654;23.370;2023-02-03T04:41:56;95079.75;;;4.36;61.27
36932;BME280;22847;42.654;23.370;2023-02-03T04:44:22;95080.28;;;4.41;61.35
36932;BME280;22847;42.654;23.370;2023-02-03T04:46:47;94848.34;;;2.76;61.76
36932;BME280;22847;42.654;23.370;2023-02-03T04:49:12;94996.16;;;3.71;62.12
36932;BME280;22847;42.654;23.370;2023-02-03T04:51:38;95129.75;;;4.47;61.46
36932;BME280;22847;42.654;23.370;2023-02-03T04:54:03;95096.88;;;4.37;61.67
36932;BME280;22847;42.654;23.370;2023-02-03T04:56:29;94853.91;;;3.10;60.96
36932;BME280;22847;42.654;23.370;2023-02-03T04:58:54;95095.66;;;4.16;62.29
36932;BME280;22847;42.654;23.370;2023-02-03T05:01:19;95108.09;;;4.23;62.24
36932;BME280;22847;42.654;23.370;2023-02-03T05:03:45;95059.34;;;3.78;62.38
36932;BME280;22847;42.654;23.370;2023-02-03T05:06:10;95105.34;;;4.12;62.24
36932;BME280;22847;42.654;23.370;2023-02-03T05:08:36;95117.50;;;4.10;62.06
36932;BME280;22847;42.654;23.370;2023-02-03T05:11:01;95066.53;;;3.73;62.52
36932;BME280;22847;42.654;23.370;2023-02-03T05:13:27;95119.75;;;4.29;61.91
36932;BME280;22847;42.654;23.370;2023-02-03T05:15:52;95098.44;;;4.13;61.92
36932;BME280;22847;42.654;23.370;2023-02-03T05:18:17;95116.50;;;4.39;61.40
36932;BME280;22847;42.654;23.370;2023-02-03T05:20:43;94930.41;;;3.37;60.77
36932;BME280;22847;42.654;23.370;2023-02-03T05:23:08;94869.22;;;2.57;61.37
36932;BME280;22847;42.654;23.370;2023-02-03T05:25:33;95093.97;;;4.15;61.93
36932;BME280;22847;42.654;23.370;2023-02-03T05:27:59;95137.81;;;4.43;61.19
36932;BME280;22847;42.654;23.370;2023-02-03T05:30:24;95169.78;;;4.55;60.99
36932;BME280;22847;42.654;23.370;2023-02-03T05:32:50;94948.88;;;3.43;61.07
36932;BME280;22847;42.654;23.370;2023-02-03T05:35:15;95068.16;;;3.88;61.20
36932;BME280;22847;42.654;23.370;2023-02-03T05:37:43;95068.81;;;3.91;61.62
36932;BME280;22847;42.654;23.370;2023-02-03T05:40:09;94885.03;;;2.79;61.59
36932;BME280;22847;42.654;23.370;2023-02-03T05:42:53;95124.03;;;4.16;62.32
36932;BME280;22847;42.654;23.370;2023-02-03T05:45:19;95163.03;;;4.11;62.00
36932;BME280;22847;42.654;23.370;2023-02-03T05:47:44;94973.50;;;2.92;62.81
36932;BME280;22847;42.654;23.370;2023-02-03T05:50:09;95178.22;;;3.87;62.56
36932;BME280;22847;42.654;23.370;2023-02-03T05:52:35;95163.31;;;4.07;62.04
36932;BME280;22847;42.654;23.370;2023-02-03T05:55:00;95145.78;;;4.12;61.93
36932;BME280;22847;42.654;23.370;2023-02-03T05:57:26;94911.34;;;2.70;61.97
36932;BME280;22847;42.654;23.370;2023-02-03T05:59:51;95104.94;;;3.63;62.24
36932;BME280;22847;42.654;23.370;2023-02-03T06:02:16;95182.84;;;3.68;63.43
36932;BME280;22847;42.654;23.370;2023-02-03T06:04:42;95047.09;;;3.39;62.43
36932;BME280;22847;42.654;23.370;2023-02-03T06:07:07;95133.19;;;3.79;62.89
36932;BME280;22847;42.654;23.370;2023-02-03T06:09:33;94887.25;;;2.43;62.11
36932;BME280;22847;42.654;23.370;2023-02-03T06:11:58;95142.38;;;3.97;62.13
36932;BME280;22847;42.654;23.370;2023-02-03T06:14:24;95129.88;;;3.63;63.15
36932;BME280;22847;42.654;23.370;2023-02-03T06:16:49;95143.78;;;3.74;63.00
36932;BME280;22847;42.654;23.370;2023-02-03T06:19:14;94884.47;;;2.32;62.73
36932;BME280;22847;42.654;23.370;2023-02-03T06:21:40;95150.81;;;5.34;58.41
36932;BME280;22847;42.654;23.370;2023-02-03T06:24:05;94890.19;;;4.65;55.77
36932;BME280;22847;42.654;23.370;2023-02-03T06:26:31;95160.03;;;8.14;50.28
36932;BME280;22847;42.654;23.370;2023-02-03T06:28:56;95157.00;;;9.70;46.78
36932;BME280;22847;42.654;23.370;2023-02-03T06:31:21;95216.19;;;10.51;43.51
36932;BME280;22847;42.654;23.370;2023-02-03T06:33:47;94909.34;;;10.22;40.87
36932;BME280;22847;42.654;23.370;2023-02-03T06:36:12;95173.09;;;12.48;38.05
36932;BME280;22847;42.654;23.370;2023-02-03T06:38:38;95119.81;;;12.22;37.52
36932;BME280;22847;42.654;23.370;2023-02-03T06:41:03;95150.13;;;13.77;35.77
36932;BME280;22847;42.654;23.370;2023-02-03T06:43:29;95117.19;;;13.57;34.88
36932;BME280;22847;42.654;23.370;2023-02-03T06:45:54;95166.69;;;14.55;33.69
36932;BME280;22847;42.654;23.370;2023-02-03T06:48:19;95000.72;;;14.61;31.70
36932;BME280;22847;42.654;23.370;2023-02-03T06:50:45;95117.09;;;15.93;30.66
36932;BME280;22847;42.654;23.370;2023-02-03T06:53:10;95038.09;;;15.62;29.90
36932;BME280;22847;42.654;23.370;2023-02-03T06:55:36;94981.13;;;16.01;28.73
36932;BME280;22847;42.654;23.370;2023-02-03T06:58:01;95116.97;;;16.49;28.49
36932;BME280;22847;42.654;23.370;2023-02-03T07:00:26;94946.25;;;15.28;29.02
36932;BME280;22847;42.654;23.370;2023-02-03T07:02:53;95192.38;;;15.78;29.86
36932;BME280;22847;42.654;23.370;2023-02-03T07:05:19;95148.03;;;16.54;29.45
36932;BME280;22847;42.654;23.370;2023-02-03T07:07:45;95142.81;;;18.00;27.02
36932;BME280;22847;42.654;23.370;2023-02-03T07:10:11;95139.34;;;17.01;28.12
36932;BME280;22847;42.654;23.370;2023-02-03T07:12:36;95117.34;;;17.16;27.82
36932;BME280;22847;42.654;23.370;2023-02-03T07:15:03;95022.69;;;17.07;26.94
36932;BME280;22847;42.654;23.370;2023-02-03T07:17:28;95133.03;;;17.40;27.59
36932;BME280;22847;42.654;23.370;2023-02-03T07:19:54;95150.50;;;18.10;26.65
36932;BME280;22847;42.654;23.370;2023-02-03T07:22:19;95128.13;;;17.83;26.67
36932;BME280;22847;42.654;23.370;2023-02-03T07:24:44;95139.06;;;15.43;29.36
36932;BME280;22847;42.654;23.370;2023-02-03T07:27:10;95178.53;;;14.93;30.39
36932;BME280;22847;42.654;23.370;2023-02-03T07:29:35;95153.34;;;14.74;30.88
36932;BME280;22847;42.654;23.370;2023-02-03T07:32:00;94945.59;;;13.61;30.84
36932;BME280;22847;42.654;23.370;2023-02-03T07:34:27;95153.25;;;13.81;31.73
36932;BME280;22847;42.654;23.370;2023-02-03T07:36:52;95154.66;;;12.77;33.77
36932;BME280;22847;42.654;23.370;2023-02-03T07:39:18;94915.66;;;11.24;34.09
36932;BME280;22847;42.654;23.370;2023-02-03T07:41:43;95174.38;;;12.99;34.58
36932;BME280;22847;42.654;23.370;2023-02-03T07:44:09;95032.59;;;10.82;35.79
36932;BME280;22847;42.654;23.370;2023-02-03T07:46:35;95184.91;;;11.00;37.66
36932;BME280;22847;42.654;23.370;2023-02-03T07:49:04;95181.75;;;10.97;37.77
36932;BME280;22847;42.654;23.370;2023-02-03T07:51:30;94795.44;;;8.77;37.35
36932;BME280;22847;42.654;23.370;2023-02-03T07:53:55;95183.56;;;11.35;37.50
36932;BME280;22847;42.654;23.370;2023-02-03T07:56:21;95179.72;;;11.19;37.29
36932;BME280;22847;42.654;23.370;2023-02-03T07:58:46;95138.63;;;10.43;38.27
36932;BME280;22847;42.654;23.370;2023-02-03T08:01:14;95175.53;;;9.56;39.82
36932;BME280;22847;42.654;23.370;2023-02-03T08:03:40;95176.72;;;9.63;40.54
36932;BME280;22847;42.654;23.370;2023-02-03T08:06:06;95148.44;;;9.79;40.67
36932;BME280;22847;42.654;23.370;2023-02-03T08:08:32;95187.53;;;10.09;39.95
36932;BME280;22847;42.654;23.370;2023-02-03T08:10:58;95180.19;;;9.94;41.13
36932;BME280;22847;42.654;23.370;2023-02-03T08:13:23;94960.38;;;8.52;40.88
36932;BME280;22847;42.654;23.370;2023-02-03T08:15:49;95193.41;;;9.81;41.05
36932;BME280;22847;42.654;23.370;2023-02-03T08:18:14;95080.38;;;9.63;40.45
36932;BME280;22847;42.654;23.370;2023-02-03T08:20:40;95173.81;;;9.86;40.47
36932;BME280;22847;42.654;23.370;2023-02-03T08:23:05;95213.94;;;9.43;41.68
36932;BME280;22847;42.654;23.370;2023-02-03T08:25:31;95216.69;;;9.41;41.92
36932;BME280;22847;42.654;23.370;2023-02-03T08:27:57;95238.56;;;9.70;41.28
36932;BME280;22847;42.654;23.370;2023-02-03T08:30:22;95197.69;;;9.50;41.68
36932;BME280;22847;42.654;23.370;2023-02-03T08:32:48;95208.66;;;9.33;41.83
36932;BME280;22847;42.654;23.370;2023-02-03T08:35:14;95214.66;;;9.45;41.53
36932;BME280;22847;42.654;23.370;2023-02-03T08:37:39;95036.41;;;8.23;40.88
36932;BME280;22847;42.654;23.370;2023-02-03T08:40:05;95055.88;;;8.28;41.55
36932;BME280;22847;42.654;23.370;2023-02-03T08:42:31;95031.56;;;8.07;41.45
36932;BME280;22847;42.654;23.370;2023-02-03T08:44:56;94999.06;;;7.70;42.05
36932;BME280;22847;42.654;23.370;2023-02-03T08:47:22;95008.47;;;7.93;41.93
36932;BME280;22847;42.654;23.370;2023-02-03T08:49:47;95254.28;;;9.37;41.56
36932;BME280;22847;42.654;23.370;2023-02-03T08:52:13;95195.59;;;9.12;41.03
36932;BME280;22847;42.654;23.370;2023-02-03T08:54:39;95231.06;;;9.13;41.32
36932;BME280;22847;42.654;23.370;2023-02-03T08:57:05;95231.94;;;9.66;41.46
36932;BME280;22847;42.654;23.370;2023-02-03T08:59:31;95204.75;;;9.59;41.29
36932;BME280;22847;42.654;23.370;2023-02-03T09:02:01;95212.34;;;9.83;41.12
36932;BME280;22847;42.654;23.370;2023-02-03T09:04:26;95235.03;;;9.28;41.65
36932;BME280;22847;42.654;23.370;2023-02-03T09:06:52;95031.19;;;8.23;42.04
36932;BME280;22847;42.654;23.370;2023-02-03T09:09:22;95273.31;;;9.49;42.12
36932;BME280;22847;42.654;23.370;2023-02-03T09:11:47;95269.72;;;9.61;42.86
36932;BME280;22847;42.654;23.370;2023-02-03T09:14:13;95232.00;;;9.55;41.90
36932;BME280;22847;42.654;23.370;2023-02-03T09:16:39;95215.41;;;9.56;42.44
36932;BME280;22847;42.654;23.370;2023-02-03T09:19:04;95180.69;;;9.14;42.81
36932;BME280;22847;42.654;23.370;2023-02-03T09:21:30;95201.63;;;9.13;42.97
36932;BME280;22847;42.654;23.370;2023-02-03T09:23:59;95005.81;;;8.15;43.30
36932;BME280;22847;42.654;23.370;2023-02-03T09:26:25;95231.38;;;9.63;42.25
36932;BME280;22847;42.654;23.370;2023-02-03T09:28:51;95182.91;;;9.19;43.46
36932;BME280;22847;42.654;23.370;2023-02-03T09:31:16;95208.53;;;9.87;43.67
36932;BME280;22847;42.654;23.370;2023-02-03T09:33:43;95193.53;;;9.79;42.51
36932;BME280;22847;42.654;23.370;2023-02-03T09:36:09;94990.22;;;8.37;41.84
36932;BME280;22847;42.654;23.370;2023-02-03T09:38:35;94813.59;;;7.31;41.89
36932;BME280;22847;42.654;23.370;2023-02-03T09:46:36;95217.91;;;8.49;43.92
36932;BME280;22847;42.654;23.370;2023-02-03T09:51:44;95147.50;;;8.19;43.95
36932;BME280;22847;42.654;23.370;2023-02-03T09:54:30;95184.22;;;8.26;43.18
36932;BME280;22847;42.654;23.370;2023-02-03T09:57:04;94983.25;;;7.50;43.83
36932;BME280;22847;42.654;23.370;2023-02-03T09:59:33;95155.03;;;8.56;42.32
36932;BME280;22847;42.654;23.370;2023-02-03T10:02:06;95206.06;;;8.90;41.90
36932;BME280;22847;42.654;23.370;2023-02-03T10:04:52;94921.59;;;7.21;41.98
36932;BME280;22847;42.654;23.370;2023-02-03T10:18:20;95195.84;;;9.09;39.70
36932;BME280;22847;42.654;23.370;2023-02-03T10:20:54;95199.22;;;8.67;40.58
36932;BME280;22847;42.654;23.370;2023-02-03T10:23:28;94930.34;;;6.51;42.25
36932;BME280;22847;42.654;23.370;2023-02-03T10:25:56;95196.53;;;7.67;43.18
36932;BME280;22847;42.654;23.370;2023-02-03T10:28:28;95203.16;;;7.36;43.63
36932;BME280;22847;42.654;23.370;2023-02-03T10:30:59;95161.88;;;6.98;44.78
36932;BME280;22847;42.654;23.370;2023-02-03T10:33:27;95189.63;;;6.72;45.33
36932;BME280;22847;42.654;23.370;2023-02-03T10:41:13;95192.31;;;7.77;43.98
36932;BME280;22847;42.654;23.370;2023-02-03T10:43:39;95147.28;;;7.43;43.64
36932;BME280;22847;42.654;23.370;2023-02-03T10:48:45;95204.03;;;7.47;45.18
36932;BME280;22847;42.654;23.370;2023-02-03T10:53:42;95167.28;;;7.65;44.03
36932;BME280;22847;42.654;23.370;2023-02-03T10:56:10;94966.91;;;6.36;43.99
36932;BME280;22847;42.654;23.370;2023-02-03T10:58:38;95018.09;;;6.67;43.74
36932;BME280;22847;42.654;23.370;2023-02-03T11:01:08;95116.63;;;7.02;42.71
36932;BME280;22847;42.654;23.370;2023-02-03T11:03:34;95188.72;;;7.55;42.68
36932;BME280;22847;42.654;23.370;2023-02-03T11:08:31;95133.03;;;7.13;40.70
36932;BME280;22847;42.654;23.370;2023-02-03T11:11:06;95160.31;;;7.30;39.96
36932;BME280;22847;42.654;23.370;2023-02-03T11:13:32;95202.19;;;7.60;39.66
36932;BME280;22847;42.654;23.370;2023-02-03T11:24:30;95178.28;;;8.01;42.86
36932;BME280;22847;42.654;23.370;2023-02-03T11:26:59;95173.22;;;8.00;39.98
36932;BME280;22847;42.654;23.370;2023-02-03T11:29:32;95207.06;;;7.76;40.08
36932;BME280;22847;42.654;23.370;2023-02-03T11:32:22;95162.78;;;7.55;38.30
36932;BME280;22847;42.654;23.370;2023-02-03T11:34:56;95159.34;;;7.55;38.39
36932;BME280;22847;42.654;23.370;2023-02-03T11:40:21;94929.31;;;5.82;40.19
36932;BME280;22847;42.654;23.370;2023-02-03T11:47:55;95101.91;;;7.93;39.01
36932;BME280;22847;42.654;23.370;2023-02-03T11:50:28;95143.25;;;8.51;38.78
36932;BME280;22847;42.654;23.370;2023-02-03T11:53:06;95180.94;;;9.11;38.79
36932;BME280;22847;42.654;23.370;2023-02-03T12:17:45;95128.59;;;8.62;34.05
36932;BME280;22847;42.654;23.370;2023-02-03T12:23:00;94989.00;;;6.52;38.15
36932;BME280;22847;42.654;23.370;2023-02-03T12:28:16;94901.66;;;6.31;36.13
36932;BME280;22847;42.654;23.370;2023-02-03T12:30:54;95042.81;;;6.95;35.36
36932;BME280;22847;42.654;23.370;2023-02-03T12:33:26;95003.94;;;6.84;35.42
36932;BME280;22847;42.654;23.370;2023-02-03T12:35:59;94940.13;;;6.59;35.85
36932;BME280;22847;42.654;23.370;2023-02-03T12:41:27;95063.00;;;7.59;36.36
36932;BME280;22847;42.654;23.370;2023-02-03T12:43:58;95098.75;;;7.89;37.21
36932;BME280;22847;42.654;23.370;2023-02-03T12:52:13;94924.22;;;6.52;36.29
36932;BME280;22847;42.654;23.370;2023-02-03T12:58:04;95083.53;;;7.85;37.14
36932;BME280;22847;42.654;23.370;2023-02-03T13:00:51;95090.13;;;8.00;36.88
36932;BME280;22847;42.654;23.370;2023-02-03T13:06:50;95110.91;;;8.11;37.15
36932;BME280;22847;42.654;23.370;2023-02-03T13:14:52;95113.00;;;8.06;37.94
36932;BME280;22847;42.654;23.370;2023-02-03T13:17:33;95052.59;;;8.04;38.50
36932;BME280;22847;42.654;23.370;2023-02-03T13:20:18;94912.66;;;7.25;38.78
36932;BME280;22847;42.654;23.370;2023-02-03T13:22:45;95098.59;;;8.58;38.14
36932;BME280;22847;42.654;23.370;2023-02-03T13:25:19;94891.44;;;7.20;38.25
36932;BME280;22847;42.654;23.370;2023-02-03T13:33:20;95092.00;;;7.98;39.49
36932;BME280;22847;42.654;23.370;2023-02-03T13:36:13;95121.16;;;7.79;41.28
36932;BME280;22847;42.654;23.370;2023-02-03T13:44:11;95037.25;;;7.34;40.00
36932;BME280;22847;42.654;23.370;2023-02-03T13:46:38;95115.38;;;7.65;39.50
36932;BME280;22847;42.654;23.370;2023-02-03T13:49:05;95109.00;;;7.69;40.00
36932;BME280;22847;42.654;23.370;2023-02-03T13:51:36;95106.53;;;7.67;41.12
36932;BME280;22847;42.654;23.370;2023-02-03T13:54:11;95125.22;;;7.37;40.99
36932;BME280;22847;42.654;23.370;2023-02-03T13:56:38;95076.25;;;6.87;42.37
36932;BME280;22847;42.654;23.370;2023-02-03T14:01:39;94876.31;;;5.64;42.26
36932;BME280;22847;42.654;23.370;2023-02-03T14:04:07;95118.72;;;6.97;41.82
36932;BME280;22847;42.654;23.370;2023-02-03T14:12:15;95116.38;;;7.29;42.32
36932;BME280;22847;42.654;23.370;2023-02-03T14:15:28;95142.56;;;7.48;41.98
36932;BME280;22847;42.654;23.370;2023-02-03T14:20:02;95086.19;;;7.28;42.32
36932;BME280;22847;42.654;23.370;2023-02-03T14:22:28;95102.13;;;7.56;41.69
36932;BME280;22847;42.654;23.370;2023-02-03T14:24:55;95096.63;;;7.72;41.94
36932;BME280;22847;42.654;23.370;2023-02-03T14:27:23;95106.19;;;7.83;41.19
36932;BME280;22847;42.654;23.370;2023-02-03T14:30:10;95018.97;;;7.25;41.20
36932;BME280;22847;42.654;23.370;2023-02-03T14:35:20;95078.78;;;7.56;40.93
36932;BME280;22847;42.654;23.370;2023-02-03T14:38:09;94546.66;;;3.83;41.38
36932;BME280;22847;42.654;23.370;2023-02-03T14:43:34;95143.34;;;6.55;43.28
36932;BME280;22847;42.654;23.370;2023-02-03T14:53:52;95095.53;;;6.48;43.00
36932;BME280;22847;42.654;23.370;2023-02-03T14:59:36;95055.47;;;6.04;41.91
36932;BME280;22847;42.654;23.370;2023-02-03T15:04:27;94979.63;;;5.42;41.97
36932;BME280;22847;42.654;23.370;2023-02-03T15:06:53;94989.38;;;5.88;41.65
36932;BME280;22847;42.654;23.370;2023-02-03T15:09:27;95079.13;;;6.71;41.84
36932;BME280;22847;42.654;23.370;2023-02-03T15:11:54;95041.41;;;6.56;41.00
36932;BME280;22847;42.654;23.370;2023-02-03T15:14:23;94877.44;;;5.13;42.29
36932;BME280;22847;42.654;23.370;2023-02-03T15:17:00;94922.31;;;5.72;41.96
36932;BME280;22847;42.654;23.370;2023-02-03T15:19:33;94983.72;;;6.06;41.93
36932;BME280;22847;42.654;23.370;2023-02-03T15:21:59;95047.84;;;6.50;41.57
36932;BME280;22847;42.654;23.370;2023-02-03T15:24:24;95044.34;;;6.62;41.78
36932;BME280;22847;42.654;23.370;2023-02-03T15:26:54;95050.59;;;6.36;42.06
36932;BME280;22847;42.654;23.370;2023-02-03T15:29:29;94802.75;;;5.21;41.50
36932;BME280;22847;42.654;23.370;2023-02-03T15:32:20;95034.66;;;6.53;42.05
36932;BME280;22847;42.654;23.370;2023-02-03T15:34:50;94980.00;;;6.21;42.37
36932;BME280;22847;42.654;23.370;2023-02-03T15:40:08;94830.72;;;5.27;41.51
36932;BME280;22847;42.654;23.370;2023-02-03T15:45:32;94834.28;;;5.26;40.79
36932;BME280;22847;42.654;23.370;2023-02-03T15:48:06;95015.56;;;6.19;40.95
36932;BME280;22847;42.654;23.370;2023-02-03T15:50:53;95044.91;;;6.31;40.98